sensor_id;sensor_type;location;lat;lon;timestamp;P1;durP1;ratioP1;P2;durP2;ratioP2
27560;SDS011;15003;47.476;11.990;2022-09-09T00:18:39;1.38;;;0.80;;
27560;SDS011;15003;47.476;11.990;2022-09-09T00:21:35;2.45;;;0.65;;
27560;SDS011;15003;47.476;11.990;2022-09-09T00:27:45;1.30;;;0.80;;
27560;SDS011;15003;47.476;11.990;2022-09-09T00:30:26;2.25;;;0.73;;
27560;SDS011;15003;47.476;11.990;2022-09-09T00:33:01;1.08;;;0.90;;
27560;SDS011;15003;47.476;11.990;2022-09-09T00:35:37;0.90;;;0.80;;
27560;SDS011;15003;47.476;11.990;2022-09-09T00:40:52;1.65;;;0.80;;
27560;SDS011;15003;47.476;11.990;2022-09-09T00:43:26;1.15;;;0.80;;
27560;SDS011;15003;47.476;11.990;2022-09-09T00:46:03;2.58;;;0.95;;
27560;SDS011;15003;47.476;11.990;2022-09-09T00:54:46;3.38;;;1.10;;
27560;SDS011;15003;47.476;11.990;2022-09-09T00:57:25;1.48;;;0.80;;
27560;SDS011;15003;47.476;11.990;2022-09-09T01:07:58;2.33;;;1.00;;
27560;SDS011;15003;47.476;11.990;2022-09-09T01:10:49;1.48;;;0.70;;
27560;SDS011;15003;47.476;11.990;2022-09-09T01:13:28;1.10;;;0.60;;
27560;SDS011;15003;47.476;11.990;2022-09-09T01:15:58;1.20;;;0.60;;
27560;SDS011;15003;47.476;11.990;2022-09-09T01:18:27;1.08;;;0.70;;
27560;SDS011;15003;47.476;11.990;2022-09-09T01:26:58;0.85;;;0.60;;
27560;SDS011;15003;47.476;11.990;2022-09-09T01:29:27;1.50;;;0.70;;
27560;SDS011;15003;47.476;11.990;2022-09-09T01:34:31;2.03;;;0.65;;
27560;SDS011;15003;47.476;11.990;2022-09-09T01:37:08;2.20;;;0.80;;
27560;SDS011;15003;47.476;11.990;2022-09-09T01:39:36;1.30;;;0.73;;
27560;SDS011;15003;47.476;11.990;2022-09-09T01:42:04;1.95;;;0.57;;
27560;SDS011;15003;47.476;11.990;2022-09-09T01:44:34;0.98;;;0.80;;
27560;SDS011;15003;47.476;11.990;2022-09-09T01:47:02;0.88;;;0.60;;
27560;SDS011;15003;47.476;11.990;2022-09-09T01:49:28;2.05;;;0.77;;
27560;SDS011;15003;47.476;11.990;2022-09-09T01:51:54;2.95;;;0.90;;
27560;SDS011;15003;47.476;11.990;2022-09-09T01:54:21;2.58;;;0.80;;
27560;SDS011;15003;47.476;11.990;2022-09-09T02:08:03;2.28;;;0.68;;
27560;SDS011;15003;47.476;11.990;2022-09-09T02:11:05;1.70;;;0.85;;
27560;SDS011;15003;47.476;11.990;2022-09-09T02:13:37;2.30;;;1.00;;
27560;SDS011;15003;47.476;11.990;2022-09-09T02:18:38;2.78;;;1.02;;
27560;SDS011;15003;47.476;11.990;2022-09-09T02:21:14;1.88;;;0.70;;
27560;SDS011;15003;47.476;11.990;2022-09-09T02:23:42;2.55;;;0.80;;
27560;SDS011;15003;47.476;11.990;2022-09-09T02:26:10;2.17;;;0.90;;
27560;SDS011;15003;47.476;11.990;2022-09-09T02:28:38;1.58;;;0.85;;
27560;SDS011;15003;47.476;11.990;2022-09-09T02:31:05;1.65;;;0.90;;
27560;SDS011;15003;47.476;11.990;2022-09-09T02:33:42;1.13;;;0.90;;
27560;SDS011;15003;47.476;11.990;2022-09-09T02:36:15;4.43;;;0.80;;
27560;SDS011;15003;47.476;11.990;2022-09-09T02:38:46;0.90;;;0.70;;
27560;SDS011;15003;47.476;11.990;2022-09-09T02:41:12;2.30;;;0.90;;
27560;SDS011;15003;47.476;11.990;2022-09-09T02:43:38;2.15;;;0.90;;
27560;SDS011;15003;47.476;11.990;2022-09-09T02:46:09;2.45;;;0.90;;
27560;SDS011;15003;47.476;11.990;2022-09-09T02:49:02;2.55;;;0.90;;
27560;SDS011;15003;47.476;11.990;2022-09-09T02:54:28;2.78;;;0.90;;
27560;SDS011;15003;47.476;11.990;2022-09-09T02:59:41;3.85;;;0.80;;
27560;SDS011;15003;47.476;11.990;2022-09-09T03:02:10;3.25;;;0.90;;
27560;SDS011;15003;47.476;11.990;2022-09-09T03:04:36;2.40;;;0.90;;
27560;SDS011;15003;47.476;11.990;2022-09-09T03:07:03;1.83;;;0.85;;
27560;SDS011;15003;47.476;11.990;2022-09-09T03:09:29;1.52;;;0.80;;
27560;SDS011;15003;47.476;11.990;2022-09-09T03:11:55;1.77;;;0.70;;
27560;SDS011;15003;47.476;11.990;2022-09-09T03:14:21;1.50;;;0.70;;
27560;SDS011;15003;47.476;11.990;2022-09-09T03:16:48;1.75;;;0.82;;
27560;SDS011;15003;47.476;11.990;2022-09-09T03:19:13;1.30;;;0.80;;
27560;SDS011;15003;47.476;11.990;2022-09-09T03:21:39;1.10;;;0.70;;
27560;SDS011;15003;47.476;11.990;2022-09-09T03:24:05;1.15;;;0.80;;
27560;SDS011;15003;47.476;11.990;2022-09-09T03:26:31;1.15;;;0.85;;
27560;SDS011;15003;47.476;11.990;2022-09-09T03:28:57;2.55;;;0.80;;
27560;SDS011;15003;47.476;11.990;2022-09-09T03:31:22;1.88;;;0.88;;
27560;SDS011;15003;47.476;11.990;2022-09-09T03:33:48;1.55;;;0.80;;
27560;SDS011;15003;47.476;11.990;2022-09-09T03:36:14;1.88;;;0.80;;
27560;SDS011;15003;47.476;11.990;2022-09-09T03:38:40;1.90;;;0.80;;
27560;SDS011;15003;47.476;11.990;2022-09-09T03:41:06;1.00;;;0.70;;
27560;SDS011;15003;47.476;11.990;2022-09-09T03:43:32;2.53;;;0.90;;
27560;SDS011;15003;47.476;11.990;2022-09-09T03:45:58;3.00;;;0.93;;
27560;SDS011;15003;47.476;11.990;2022-09-09T03:48:24;1.40;;;0.80;;
27560;SDS011;15003;47.476;11.990;2022-09-09T03:50:51;2.45;;;0.82;;
27560;SDS011;15003;47.476;11.990;2022-09-09T03:53:19;1.92;;;0.68;;
27560;SDS011;15003;47.476;11.990;2022-09-09T03:55:51;1.58;;;0.70;;
27560;SDS011;15003;47.476;11.990;2022-09-09T03:58:18;1.63;;;0.80;;
27560;SDS011;15003;47.476;11.990;2022-09-09T04:00:57;2.60;;;0.90;;
27560;SDS011;15003;47.476;11.990;2022-09-09T04:03:26;3.47;;;0.80;;
27560;SDS011;15003;47.476;11.990;2022-09-09T04:05:53;1.85;;;0.90;;
27560;SDS011;15003;47.476;11.990;2022-09-09T04:08:21;1.40;;;0.70;;
27560;SDS011;15003;47.476;11.990;2022-09-09T04:10:48;0.95;;;0.70;;
27560;SDS011;15003;47.476;11.990;2022-09-09T04:13:14;1.27;;;0.80;;
27560;SDS011;15003;47.476;11.990;2022-09-09T04:15:41;2.13;;;1.20;;
27560;SDS011;15003;47.476;11.990;2022-09-09T04:18:07;3.50;;;1.02;;
27560;SDS011;15003;47.476;11.990;2022-09-09T04:20:33;2.55;;;1.15;;
27560;SDS011;15003;47.476;11.990;2022-09-09T04:22:59;1.75;;;1.00;;
27560;SDS011;15003;47.476;11.990;2022-09-09T04:25:25;1.38;;;1.00;;
27560;SDS011;15003;47.476;11.990;2022-09-09T04:27:54;1.88;;;1.00;;
27560;SDS011;15003;47.476;11.990;2022-09-09T04:30:22;1.73;;;0.88;;
27560;SDS011;15003;47.476;11.990;2022-09-09T04:32:49;1.90;;;0.90;;
27560;SDS011;15003;47.476;11.990;2022-09-09T04:35:14;2.22;;;1.05;;
27560;SDS011;15003;47.476;11.990;2022-09-09T04:37:40;1.15;;;0.93;;
27560;SDS011;15003;47.476;11.990;2022-09-09T04:40:06;1.08;;;0.80;;
27560;SDS011;15003;47.476;11.990;2022-09-09T04:42:36;4.45;;;1.10;;
27560;SDS011;15003;47.476;11.990;2022-09-09T04:45:02;3.42;;;1.25;;
27560;SDS011;15003;47.476;11.990;2022-09-09T04:47:29;2.25;;;0.95;;
27560;SDS011;15003;47.476;11.990;2022-09-09T04:49:54;2.13;;;1.10;;
27560;SDS011;15003;47.476;11.990;2022-09-09T04:52:20;2.20;;;1.15;;
27560;SDS011;15003;47.476;11.990;2022-09-09T04:54:46;3.45;;;1.05;;
27560;SDS011;15003;47.476;11.990;2022-09-09T04:57:12;1.65;;;1.05;;
27560;SDS011;15003;47.476;11.990;2022-09-09T04:59:37;1.52;;;0.90;;
27560;SDS011;15003;47.476;11.990;2022-09-09T05:02:03;2.60;;;0.90;;
27560;SDS011;15003;47.476;11.990;2022-09-09T05:04:29;2.35;;;1.00;;
27560;SDS011;15003;47.476;11.990;2022-09-09T05:06:55;2.95;;;0.90;;
27560;SDS011;15003;47.476;11.990;2022-09-09T05:09:21;2.17;;;0.90;;
27560;SDS011;15003;47.476;11.990;2022-09-09T05:11:47;1.48;;;1.10;;
27560;SDS011;15003;47.476;11.990;2022-09-09T05:14:12;1.40;;;1.10;;
27560;SDS011;15003;47.476;11.990;2022-09-09T05:16:38;1.85;;;1.10;;
27560;SDS011;15003;47.476;11.990;2022-09-09T05:19:04;1.30;;;0.90;;
27560;SDS011;15003;47.476;11.990;2022-09-09T05:21:29;1.02;;;0.93;;
27560;SDS011;15003;47.476;11.990;2022-09-09T05:23:55;2.30;;;0.85;;
27560;SDS011;15003;47.476;11.990;2022-09-09T05:26:21;1.00;;;0.80;;
27560;SDS011;15003;47.476;11.990;2022-09-09T05:28:48;1.73;;;0.88;;
27560;SDS011;15003;47.476;11.990;2022-09-09T05:31:14;1.17;;;0.90;;
27560;SDS011;15003;47.476;11.990;2022-09-09T05:33:42;1.88;;;1.10;;
27560;SDS011;15003;47.476;11.990;2022-09-09T05:36:11;1.25;;;1.00;;
27560;SDS011;15003;47.476;11.990;2022-09-09T05:38:39;1.40;;;1.20;;
27560;SDS011;15003;47.476;11.990;2022-09-09T05:41:06;1.55;;;1.08;;
27560;SDS011;15003;47.476;11.990;2022-09-09T05:43:33;1.42;;;1.25;;
27560;SDS011;15003;47.476;11.990;2022-09-09T05:46:00;1.55;;;1.10;;
27560;SDS011;15003;47.476;11.990;2022-09-09T05:48:35;1.60;;;1.17;;
27560;SDS011;15003;47.476;11.990;2022-09-09T05:51:03;2.55;;;1.40;;
27560;SDS011;15003;47.476;11.990;2022-09-09T05:53:31;1.65;;;1.48;;
27560;SDS011;15003;47.476;11.990;2022-09-09T05:55:58;3.97;;;1.67;;
27560;SDS011;15003;47.476;11.990;2022-09-09T05:58:31;4.68;;;2.13;;
27560;SDS011;15003;47.476;11.990;2022-09-09T06:01:05;4.72;;;2.00;;
27560;SDS011;15003;47.476;11.990;2022-09-09T06:03:36;2.75;;;1.70;;
27560;SDS011;15003;47.476;11.990;2022-09-09T06:06:06;2.45;;;1.80;;
27560;SDS011;15003;47.476;11.990;2022-09-09T06:08:36;2.83;;;1.77;;
27560;SDS011;15003;47.476;11.990;2022-09-09T06:11:05;4.30;;;2.00;;
27560;SDS011;15003;47.476;11.990;2022-09-09T06:13:37;4.20;;;2.00;;
27560;SDS011;15003;47.476;11.990;2022-09-09T06:16:03;2.72;;;1.80;;
27560;SDS011;15003;47.476;11.990;2022-09-09T06:18:31;5.00;;;2.08;;
27560;SDS011;15003;47.476;11.990;2022-09-09T06:20:57;2.85;;;2.42;;
27560;SDS011;15003;47.476;11.990;2022-09-09T06:23:29;2.53;;;2.33;;
27560;SDS011;15003;47.476;11.990;2022-09-09T06:26:05;3.60;;;2.38;;
27560;SDS011;15003;47.476;11.990;2022-09-09T06:28:38;3.58;;;2.13;;
27560;SDS011;15003;47.476;11.990;2022-09-09T06:31:05;2.20;;;2.00;;
27560;SDS011;15003;47.476;11.990;2022-09-09T06:33:34;4.25;;;2.70;;
27560;SDS011;15003;47.476;11.990;2022-09-09T06:36:04;3.08;;;2.20;;
27560;SDS011;15003;47.476;11.990;2022-09-09T06:38:31;2.80;;;1.92;;
27560;SDS011;15003;47.476;11.990;2022-09-09T06:40:57;2.63;;;2.17;;
27560;SDS011;15003;47.476;11.990;2022-09-09T06:43:25;4.05;;;2.10;;
27560;SDS011;15003;47.476;11.990;2022-09-09T06:48:25;2.85;;;2.15;;
27560;SDS011;15003;47.476;11.990;2022-09-09T06:51:02;3.72;;;2.30;;
27560;SDS011;15003;47.476;11.990;2022-09-09T06:53:31;2.85;;;2.17;;
27560;SDS011;15003;47.476;11.990;2022-09-09T06:55:59;3.45;;;1.88;;
27560;SDS011;15003;47.476;11.990;2022-09-09T06:58:35;2.25;;;1.90;;
27560;SDS011;15003;47.476;11.990;2022-09-09T07:01:05;4.53;;;2.10;;
27560;SDS011;15003;47.476;11.990;2022-09-09T07:03:32;4.18;;;2.30;;
27560;SDS011;15003;47.476;11.990;2022-09-09T07:05:58;2.67;;;1.92;;
27560;SDS011;15003;47.476;11.990;2022-09-09T07:08:24;3.30;;;2.40;;
27560;SDS011;15003;47.476;11.990;2022-09-09T07:10:50;3.08;;;2.20;;
27560;SDS011;15003;47.476;11.990;2022-09-09T07:13:17;14.10;;;6.45;;
27560;SDS011;15003;47.476;11.990;2022-09-09T07:15:42;14.50;;;7.40;;
27560;SDS011;15003;47.476;11.990;2022-09-09T07:18:08;15.50;;;6.70;;
27560;SDS011;15003;47.476;11.990;2022-09-09T07:20:34;14.00;;;6.22;;
27560;SDS011;15003;47.476;11.990;2022-09-09T07:22:59;10.90;;;5.35;;
27560;SDS011;15003;47.476;11.990;2022-09-09T07:25:25;19.95;;;8.90;;
27560;SDS011;15003;47.476;11.990;2022-09-09T07:27:51;30.60;;;12.63;;
27560;SDS011;15003;47.476;11.990;2022-09-09T07:30:17;22.20;;;10.93;;
27560;SDS011;15003;47.476;11.990;2022-09-09T07:32:42;14.88;;;8.40;;
27560;SDS011;15003;47.476;11.990;2022-09-09T07:35:08;10.10;;;5.53;;
27560;SDS011;15003;47.476;11.990;2022-09-09T07:37:35;10.48;;;4.50;;
27560;SDS011;15003;47.476;11.990;2022-09-09T07:40:02;5.50;;;3.38;;
27560;SDS011;15003;47.476;11.990;2022-09-09T07:42:29;4.63;;;3.55;;
27560;SDS011;15003;47.476;11.990;2022-09-09T07:44:54;3.08;;;2.40;;
27560;SDS011;15003;47.476;11.990;2022-09-09T07:47:20;5.07;;;3.65;;
27560;SDS011;15003;47.476;11.990;2022-09-09T07:49:46;5.45;;;4.07;;
27560;SDS011;15003;47.476;11.990;2022-09-09T07:52:12;4.57;;;3.20;;
27560;SDS011;15003;47.476;11.990;2022-09-09T07:54:38;3.35;;;2.13;;
27560;SDS011;15003;47.476;11.990;2022-09-09T07:57:04;2.72;;;1.90;;
27560;SDS011;15003;47.476;11.990;2022-09-09T07:59:29;3.35;;;1.70;;
27560;SDS011;15003;47.476;11.990;2022-09-09T08:01:55;2.47;;;1.85;;
27560;SDS011;15003;47.476;11.990;2022-09-09T08:04:21;3.22;;;1.70;;
27560;SDS011;15003;47.476;11.990;2022-09-09T08:06:50;3.25;;;1.83;;
27560;SDS011;15003;47.476;11.990;2022-09-09T08:09:23;3.65;;;2.00;;
27560;SDS011;15003;47.476;11.990;2022-09-09T08:11:49;2.90;;;1.88;;
27560;SDS011;15003;47.476;11.990;2022-09-09T08:14:15;2.92;;;1.80;;
27560;SDS011;15003;47.476;11.990;2022-09-09T08:16:42;3.78;;;1.83;;
27560;SDS011;15003;47.476;11.990;2022-09-09T08:19:11;2.30;;;1.63;;
27560;SDS011;15003;47.476;11.990;2022-09-09T08:21:38;3.15;;;2.00;;
27560;SDS011;15003;47.476;11.990;2022-09-09T08:24:05;2.80;;;1.65;;
27560;SDS011;15003;47.476;11.990;2022-09-09T08:26:36;2.88;;;1.80;;
27560;SDS011;15003;47.476;11.990;2022-09-09T08:31:33;1.80;;;1.55;;
27560;SDS011;15003;47.476;11.990;2022-09-09T08:34:01;2.45;;;1.40;;
27560;SDS011;15003;47.476;11.990;2022-09-09T08:36:29;2.45;;;1.60;;
27560;SDS011;15003;47.476;11.990;2022-09-09T08:38:57;1.88;;;1.48;;
27560;SDS011;15003;47.476;11.990;2022-09-09T08:44:55;3.22;;;2.30;;
27560;SDS011;15003;47.476;11.990;2022-09-09T08:50:26;4.60;;;3.60;;
27560;SDS011;15003;47.476;11.990;2022-09-09T08:55:53;2.13;;;1.55;;
27560;SDS011;15003;47.476;11.990;2022-09-09T08:58:25;2.40;;;1.45;;
27560;SDS011;15003;47.476;11.990;2022-09-09T09:09:21;1.77;;;1.30;;
27560;SDS011;15003;47.476;11.990;2022-09-09T09:12:24;1.85;;;1.10;;
27560;SDS011;15003;47.476;11.990;2022-09-09T09:14:55;1.73;;;1.10;;
27560;SDS011;15003;47.476;11.990;2022-09-09T09:17:21;1.15;;;0.93;;
27560;SDS011;15003;47.476;11.990;2022-09-09T09:19:50;1.10;;;0.98;;
27560;SDS011;15003;47.476;11.990;2022-09-09T09:31:10;1.45;;;1.02;;
27560;SDS011;15003;47.476;11.990;2022-09-09T09:36:07;2.88;;;1.55;;
27560;SDS011;15003;47.476;11.990;2022-09-09T09:38:34;1.55;;;1.13;;
27560;SDS011;15003;47.476;11.990;2022-09-09T09:41:01;1.17;;;0.90;;
27560;SDS011;15003;47.476;11.990;2022-09-09T09:43:31;2.10;;;1.05;;
27560;SDS011;15003;47.476;11.990;2022-09-09T09:45:59;1.10;;;1.00;;
27560;SDS011;15003;47.476;11.990;2022-09-09T09:48:28;1.70;;;1.17;;
27560;SDS011;15003;47.476;11.990;2022-09-09T09:50:58;1.10;;;1.00;;
27560;SDS011;15003;47.476;11.990;2022-09-09T09:53:33;1.30;;;1.20;;
27560;SDS011;15003;47.476;11.990;2022-09-09T09:56:02;1.73;;;1.15;;
27560;SDS011;15003;47.476;11.990;2022-09-09T10:01:22;1.92;;;1.25;;
27560;SDS011;15003;47.476;11.990;2022-09-09T10:03:57;1.75;;;1.40;;
27560;SDS011;15003;47.476;11.990;2022-09-09T10:06:29;1.23;;;1.13;;
27560;SDS011;15003;47.476;11.990;2022-09-09T10:09:01;2.22;;;1.05;;
27560;SDS011;15003;47.476;11.990;2022-09-09T10:11:44;1.33;;;1.23;;
27560;SDS011;15003;47.476;11.990;2022-09-09T10:14:29;1.40;;;1.30;;
27560;SDS011;15003;47.476;11.990;2022-09-09T10:22:47;1.45;;;1.30;;
27560;SDS011;15003;47.476;11.990;2022-09-09T10:36:43;3.80;;;1.70;;
27560;SDS011;15003;47.476;11.990;2022-09-09T10:42:06;2.38;;;1.50;;
27560;SDS011;15003;47.476;11.990;2022-09-09T10:55:48;3.78;;;1.60;;
27560;SDS011;15003;47.476;11.990;2022-09-09T10:58:23;2.83;;;1.80;;
27560;SDS011;15003;47.476;11.990;2022-09-09T11:00:56;2.60;;;1.50;;
27560;SDS011;15003;47.476;11.990;2022-09-09T11:03:27;2.00;;;1.80;;
27560;SDS011;15003;47.476;11.990;2022-09-09T11:05:58;5.70;;;2.22;;
27560;SDS011;15003;47.476;11.990;2022-09-09T11:08:30;4.85;;;2.60;;
27560;SDS011;15003;47.476;11.990;2022-09-09T11:18:46;4.35;;;1.67;;
27560;SDS011;15003;47.476;11.990;2022-09-09T11:21:19;2.40;;;1.52;;
27560;SDS011;15003;47.476;11.990;2022-09-09T11:23:57;3.13;;;1.90;;
27560;SDS011;15003;47.476;11.990;2022-09-09T11:26:57;2.92;;;1.60;;
27560;SDS011;15003;47.476;11.990;2022-09-09T11:40:23;1.80;;;1.00;;
27560;SDS011;15003;47.476;11.990;2022-09-09T11:43:04;1.83;;;1.00;;
27560;SDS011;15003;47.476;11.990;2022-09-09T11:45:35;1.00;;;0.90;;
27560;SDS011;15003;47.476;11.990;2022-09-09T11:48:02;1.58;;;0.95;;
27560;SDS011;15003;47.476;11.990;2022-09-09T11:50:30;2.05;;;0.98;;
27560;SDS011;15003;47.476;11.990;2022-09-09T11:53:05;2.10;;;1.00;;
27560;SDS011;15003;47.476;11.990;2022-09-09T11:55:45;1.27;;;1.00;;
27560;SDS011;15003;47.476;11.990;2022-09-09T12:00:37;1.33;;;0.95;;
27560;SDS011;15003;47.476;11.990;2022-09-09T12:03:06;1.42;;;1.00;;
27560;SDS011;15003;47.476;11.990;2022-09-09T12:05:53;2.75;;;1.00;;
27560;SDS011;15003;47.476;11.990;2022-09-09T12:08:24;1.48;;;1.00;;
27560;SDS011;15003;47.476;11.990;2022-09-09T12:10:58;1.90;;;0.98;;
27560;SDS011;15003;47.476;11.990;2022-09-09T12:13:25;1.10;;;0.70;;
27560;SDS011;15003;47.476;11.990;2022-09-09T12:18:21;1.30;;;0.80;;
27560;SDS011;15003;47.476;11.990;2022-09-09T12:21:03;1.08;;;0.73;;
27560;SDS011;15003;47.476;11.990;2022-09-09T12:23:53;0.85;;;0.70;;
27560;SDS011;15003;47.476;11.990;2022-09-09T12:29:09;1.83;;;1.00;;
27560;SDS011;15003;47.476;11.990;2022-09-09T12:31:46;1.00;;;0.80;;
27560;SDS011;15003;47.476;11.990;2022-09-09T12:34:41;1.38;;;0.73;;
27560;SDS011;15003;47.476;11.990;2022-09-09T12:37:32;0.65;;;0.60;;
27560;SDS011;15003;47.476;11.990;2022-09-09T12:40:05;2.05;;;0.80;;
27560;SDS011;15003;47.476;11.990;2022-09-09T12:42:44;1.65;;;0.90;;
27560;SDS011;15003;47.476;11.990;2022-09-09T12:45:17;1.52;;;0.90;;
27560;SDS011;15003;47.476;11.990;2022-09-09T12:47:48;1.50;;;1.08;;
27560;SDS011;15003;47.476;11.990;2022-09-09T12:50:38;1.85;;;0.90;;
27560;SDS011;15003;47.476;11.990;2022-09-09T12:55:53;1.90;;;0.93;;
27560;SDS011;15003;47.476;11.990;2022-09-09T12:58:35;1.20;;;0.90;;
27560;SDS011;15003;47.476;11.990;2022-09-09T13:01:03;2.95;;;1.00;;
27560;SDS011;15003;47.476;11.990;2022-09-09T13:03:31;2.47;;;0.90;;
27560;SDS011;15003;47.476;11.990;2022-09-09T13:05:59;1.55;;;1.02;;
27560;SDS011;15003;47.476;11.990;2022-09-09T13:08:37;0.70;;;0.70;;
27560;SDS011;15003;47.476;11.990;2022-09-09T13:11:04;1.80;;;1.00;;
27560;SDS011;15003;47.476;11.990;2022-09-09T13:13:37;1.83;;;1.30;;
27560;SDS011;15003;47.476;11.990;2022-09-09T13:16:05;1.42;;;0.90;;
27560;SDS011;15003;47.476;11.990;2022-09-09T13:19:01;2.38;;;1.10;;
27560;SDS011;15003;47.476;11.990;2022-09-09T13:22:12;2.58;;;0.90;;
27560;SDS011;15003;47.476;11.990;2022-09-09T13:24:45;2.03;;;1.13;;
27560;SDS011;15003;47.476;11.990;2022-09-09T13:27:24;1.67;;;0.90;;
27560;SDS011;15003;47.476;11.990;2022-09-09T13:29:58;2.40;;;1.10;;
27560;SDS011;15003;47.476;11.990;2022-09-09T13:32:25;2.42;;;1.08;;
27560;SDS011;15003;47.476;11.990;2022-09-09T13:34:58;1.45;;;1.00;;
27560;SDS011;15003;47.476;11.990;2022-09-09T13:37:29;2.35;;;1.00;;
27560;SDS011;15003;47.476;11.990;2022-09-09T13:40:04;1.92;;;1.30;;
27560;SDS011;15003;47.476;11.990;2022-09-09T13:42:32;1.60;;;1.45;;
27560;SDS011;15003;47.476;11.990;2022-09-09T13:45:14;2.22;;;1.30;;
27560;SDS011;15003;47.476;11.990;2022-09-09T13:47:46;2.75;;;1.45;;
27560;SDS011;15003;47.476;11.990;2022-09-09T13:50:19;2.97;;;1.00;;
27560;SDS011;15003;47.476;11.990;2022-09-09T13:52:53;2.47;;;1.45;;
27560;SDS011;15003;47.476;11.990;2022-09-09T13:55:24;7.95;;;1.77;;
27560;SDS011;15003;47.476;11.990;2022-09-09T13:57:53;2.72;;;1.20;;
27560;SDS011;15003;47.476;11.990;2022-09-09T14:00:24;2.47;;;1.48;;
27560;SDS011;15003;47.476;11.990;2022-09-09T14:02:50;2.42;;;1.45;;
27560;SDS011;15003;47.476;11.990;2022-09-09T14:05:18;2.38;;;1.40;;
27560;SDS011;15003;47.476;11.990;2022-09-09T14:07:45;2.00;;;1.20;;
27560;SDS011;15003;47.476;11.990;2022-09-09T14:10:11;1.70;;;1.35;;
27560;SDS011;15003;47.476;11.990;2022-09-09T14:12:37;1.63;;;1.20;;
27560;SDS011;15003;47.476;11.990;2022-09-09T14:15:04;1.50;;;1.30;;
27560;SDS011;15003;47.476;11.990;2022-09-09T14:17:31;2.90;;;1.50;;
27560;SDS011;15003;47.476;11.990;2022-09-09T14:19:58;3.60;;;1.55;;
27560;SDS011;15003;47.476;11.990;2022-09-09T14:22:24;2.33;;;1.60;;
27560;SDS011;15003;47.476;11.990;2022-09-09T14:24:50;2.78;;;2.40;;
27560;SDS011;15003;47.476;11.990;2022-09-09T14:27:16;2.80;;;1.58;;
27560;SDS011;15003;47.476;11.990;2022-09-09T14:29:42;2.15;;;1.30;;
27560;SDS011;15003;47.476;11.990;2022-09-09T14:32:08;2.95;;;1.40;;
27560;SDS011;15003;47.476;11.990;2022-09-09T14:34:33;2.67;;;1.23;;
27560;SDS011;15003;47.476;11.990;2022-09-09T14:36:59;5.85;;;2.10;;
27560;SDS011;15003;47.476;11.990;2022-09-09T14:39:25;2.40;;;1.67;;
27560;SDS011;15003;47.476;11.990;2022-09-09T14:41:51;3.72;;;1.60;;
27560;SDS011;15003;47.476;11.990;2022-09-09T14:44:16;2.25;;;1.98;;
27560;SDS011;15003;47.476;11.990;2022-09-09T14:46:42;3.63;;;1.83;;
27560;SDS011;15003;47.476;11.990;2022-09-09T14:49:08;2.13;;;1.60;;
27560;SDS011;15003;47.476;11.990;2022-09-09T14:51:34;2.78;;;1.90;;
27560;SDS011;15003;47.476;11.990;2022-09-09T14:53:59;2.42;;;1.92;;
27560;SDS011;15003;47.476;11.990;2022-09-09T14:56:26;3.13;;;2.03;;
27560;SDS011;15003;47.476;11.990;2022-09-09T14:58:56;3.05;;;2.03;;
27560;SDS011;15003;47.476;11.990;2022-09-09T15:01:24;1.90;;;1.48;;
27560;SDS011;15003;47.476;11.990;2022-09-09T15:03:54;2.47;;;1.60;;
27560;SDS011;15003;47.476;11.990;2022-09-09T15:06:23;2.08;;;1.80;;
27560;SDS011;15003;47.476;11.990;2022-09-09T15:08:51;2.97;;;1.63;;
27560;SDS011;15003;47.476;11.990;2022-09-09T15:11:19;3.03;;;1.70;;
27560;SDS011;15003;47.476;11.990;2022-09-09T15:13:45;2.90;;;1.88;;
27560;SDS011;15003;47.476;11.990;2022-09-09T15:16:15;2.67;;;1.60;;
27560;SDS011;15003;47.476;11.990;2022-09-09T15:18:43;2.33;;;1.70;;
27560;SDS011;15003;47.476;11.990;2022-09-09T15:21:11;2.35;;;1.85;;
27560;SDS011;15003;47.476;11.990;2022-09-09T15:23:39;3.70;;;2.17;;
27560;SDS011;15003;47.476;11.990;2022-09-09T15:26:06;6.47;;;2.88;;
27560;SDS011;15003;47.476;11.990;2022-09-09T15:28:32;2.30;;;2.03;;
27560;SDS011;15003;47.476;11.990;2022-09-09T15:31:00;4.70;;;2.40;;
27560;SDS011;15003;47.476;11.990;2022-09-09T15:33:37;5.10;;;2.00;;
27560;SDS011;15003;47.476;11.990;2022-09-09T15:39:07;1.60;;;1.37;;
27560;SDS011;15003;47.476;11.990;2022-09-09T15:41:35;1.65;;;1.42;;
27560;SDS011;15003;47.476;11.990;2022-09-09T15:44:01;2.13;;;1.67;;
27560;SDS011;15003;47.476;11.990;2022-09-09T15:46:31;1.75;;;1.48;;
27560;SDS011;15003;47.476;11.990;2022-09-09T15:51:45;3.53;;;1.38;;
27560;SDS011;15003;47.476;11.990;2022-09-09T15:54:16;1.42;;;1.33;;
27560;SDS011;15003;47.476;11.990;2022-09-09T15:56:43;2.22;;;1.50;;
27560;SDS011;15003;47.476;11.990;2022-09-09T15:59:11;3.97;;;1.83;;
27560;SDS011;15003;47.476;11.990;2022-09-09T16:01:37;3.63;;;1.80;;
27560;SDS011;15003;47.476;11.990;2022-09-09T16:04:03;2.40;;;1.40;;
27560;SDS011;15003;47.476;11.990;2022-09-09T16:06:29;2.83;;;1.70;;
27560;SDS011;15003;47.476;11.990;2022-09-09T16:08:56;3.10;;;1.73;;
27560;SDS011;15003;47.476;11.990;2022-09-09T16:11:27;3.13;;;2.25;;
27560;SDS011;15003;47.476;11.990;2022-09-09T16:13:56;3.13;;;1.90;;
27560;SDS011;15003;47.476;11.990;2022-09-09T16:16:23;2.22;;;1.55;;
27560;SDS011;15003;47.476;11.990;2022-09-09T16:18:52;2.10;;;1.48;;
27560;SDS011;15003;47.476;11.990;2022-09-09T16:23:49;3.28;;;1.35;;
27560;SDS011;15003;47.476;11.990;2022-09-09T16:26:17;2.17;;;1.48;;
27560;SDS011;15003;47.476;11.990;2022-09-09T16:28:44;3.20;;;1.60;;
27560;SDS011;15003;47.476;11.990;2022-09-09T16:31:12;3.22;;;1.52;;
27560;SDS011;15003;47.476;11.990;2022-09-09T16:33:43;1.77;;;1.40;;
27560;SDS011;15003;47.476;11.990;2022-09-09T16:36:11;3.17;;;1.33;;
27560;SDS011;15003;47.476;11.990;2022-09-09T16:38:40;41.45;;;20.15;;
27560;SDS011;15003;47.476;11.990;2022-09-09T16:41:07;41.20;;;20.95;;
27560;SDS011;15003;47.476;11.990;2022-09-09T16:43:35;56.25;;;31.70;;
27560;SDS011;15003;47.476;11.990;2022-09-09T16:46:12;148.02;;;78.90;;
27560;SDS011;15003;47.476;11.990;2022-09-09T16:48:40;59.25;;;37.20;;
27560;SDS011;15003;47.476;11.990;2022-09-09T16:51:08;43.83;;;30.85;;
27560;SDS011;15003;47.476;11.990;2022-09-09T16:53:50;18.40;;;13.15;;
27560;SDS011;15003;47.476;11.990;2022-09-09T16:56:18;7.72;;;6.13;;
27560;SDS011;15003;47.476;11.990;2022-09-09T16:58:50;4.95;;;3.47;;
27560;SDS011;15003;47.476;11.990;2022-09-09T17:01:22;4.43;;;2.70;;
27560;SDS011;15003;47.476;11.990;2022-09-09T17:03:56;6.20;;;3.92;;
27560;SDS011;15003;47.476;11.990;2022-09-09T17:06:24;3.92;;;3.38;;
27560;SDS011;15003;47.476;11.990;2022-09-09T17:09:09;2.85;;;2.65;;
27560;SDS011;15003;47.476;11.990;2022-09-09T17:11:39;4.10;;;3.70;;
27560;SDS011;15003;47.476;11.990;2022-09-09T17:14:06;6.10;;;5.50;;
27560;SDS011;15003;47.476;11.990;2022-09-09T17:16:34;4.18;;;3.78;;
27560;SDS011;15003;47.476;11.990;2022-09-09T17:19:01;5.35;;;4.85;;
27560;SDS011;15003;47.476;11.990;2022-09-09T17:21:28;4.00;;;3.45;;
27560;SDS011;15003;47.476;11.990;2022-09-09T17:23:54;3.83;;;3.42;;
27560;SDS011;15003;47.476;11.990;2022-09-09T17:26:23;4.20;;;3.80;;
27560;SDS011;15003;47.476;11.990;2022-09-09T17:28:53;3.80;;;3.22;;
27560;SDS011;15003;47.476;11.990;2022-09-09T17:31:20;3.40;;;2.97;;
27560;SDS011;15003;47.476;11.990;2022-09-09T17:33:47;3.45;;;2.45;;
27560;SDS011;15003;47.476;11.990;2022-09-09T17:38:57;2.30;;;1.67;;
27560;SDS011;15003;47.476;11.990;2022-09-09T17:41:25;2.10;;;1.60;;
27560;SDS011;15003;47.476;11.990;2022-09-09T17:44:00;2.75;;;1.90;;